METAR stanice u blizini

 

LYBE - Beograd / Surčin, Srbija
Ažurirano: 28/09/2021 06:00
Mostly Cloudy
Mostly Cloudy
 Pravac vetra ZJZ
Vetar: ZJZ 13 km/h
Temperatura: 16°C
Tačka rose: 15°C
Vlažnost: 94%
Pritisak: 1018 hPa
Oblaci: Mostly Cloudy
Vidljivost: 10 km
Cloud details: Mostly Cloudy 518 m
Mostly Cloudy 1311 m
2021/09/28 04:00 LYBE 280400Z 24007KT 9999 BKN017 BKN043 16/15 Q1018 NOSIG
LYBT - Beograd / Batajnica, Srbija
Ažurirano: 28/09/2021 06:00
Mostly Cloudy
Mostly Cloudy
 Pravac vetra JJZ
Vetar: JJZ 7 km/h
Temperatura: 16°C
Tačka rose: 16°C
Vlažnost: 100%
Pritisak: 1017 hPa
Oblaci: Mostly Cloudy
Vidljivost: 10 km
Cloud details: Partly Cloudy 427 m
Mostly Cloudy 762 m
2021/09/28 04:00 LYBT 280400Z 20004KT 9999 SCT014 BKN025 16/16 Q1017 NOSIG
LYVR - Vršac, Srbija
Ažurirano: 28/09/2021 06:00
Oblačno
Oblačno
 Pravac vetra JZ
Vetar: JZ 9 km/h
Temperatura: 18°C
Tačka rose: 16°C
Vlažnost: 88%
Pritisak: 1017 hPa
Oblaci: Oblačno
Vidljivost: 10 km
Cloud details: Few Clouds 274 m
Oblačno 579 m
2021/09/28 04:00 LYVR 280400Z AUTO 22005KT 190V250 9999 FEW009/// OVC019/// 18/16 Q1017
 
LYKV - Lađevci, Srbija
Ažurirano: 28/09/2021 06:00
Mist, Delimično oblačno
Mist, Delimično oblačno
 Pravac vetra calm
Vetar: Tišina
Temperatura: 17°C
Tačka rose: 16°C
Vlažnost: 94%
Pritisak: 1018 hPa
Pregled: Mist
Oblaci: Partly Cloudy
Vidljivost: 4 km
Cloud details: Partly Cloudy 1006 m
2021/09/28 04:00 LYKV 280400Z 00000KT 4000 BR SCT033 17/16 Q1018 NOSIG
LYNI - Niš, Srbija
Ažurirano: 28/09/2021 06:00
Vedro
Vedro
 Pravac vetra varies
Vetar: varies 2 km/h
Temperatura: 15°C
Tačka rose: 12°C
Vlažnost: 82%
Pritisak: 1017 hPa
Pregled: Vedro
Vidljivost: greater than 10 km
2021/09/28 04:00 LYNI 280400Z VRB01KT CAVOK 15/12 Q1017 NOSIG
BKPR - Priština, Srbija
Ažurirano: 28/09/2021 06:00
Mostly Cloudy
Mostly Cloudy
 Pravac vetra calm
Vetar: Tišina
Temperatura: 15°C
Tačka rose: 13°C
Vlažnost: 88%
Pritisak: 1018 hPa
Oblaci: Mostly Cloudy
Vidljivost: 10 km
Cloud details: Partly Cloudy 1219 m
Mostly Cloudy 2438 m
2021/09/28 04:00 BKPR 280400Z 00000KT 9999 SCT040 BKN080 15/13 Q1018 NOSIG
 
LHPP - Pecs / Pogany, Hungary
Ažurirano: 28/09/2021 05:47
Mist, Oblačno
Mist, Oblačno
 Pravac vetra Z
Vetar: Z 13 km/h
Temperatura: 15°C
Tačka rose: 15°C
Vlažnost: 100%
Pritisak: 1018 hPa
Pregled: Mist
Oblaci: Oblačno
Vidljivost: 3 km
Cloud details: Oblačno 30 m
2021/09/28 03:47 LHPP 280347Z AUTO 27007KT 240V300 3000 BR OVC001 15/15 Q1018
LHUD - Szeged, Hungary
Ažurirano: 04/07/2019 01:45
NOT Current
Vedro
Vedro
 Pravac vetra S
Vetar: S 7 km/h
Temperatura: 18°C
Tačka rose: 13°C
Vlažnost: 73%
Pritisak: 1019 hPa
Pregled: Vedro
Vidljivost: greater than 10 km
2019/07/03 23:45 LHUD 032345Z 35004KT CAVOK 18/13 Q1019
LRTR - Timisoara, Romania
Ažurirano: 28/09/2021 06:00
Slaba kiša, Delimično oblačno
Slaba kiša, Delimično oblačno
 Pravac vetra J
Vetar: J 9 km/h
Temperatura: 14°C
Tačka rose: 14°C
Vlažnost: 100%
Pritisak: 1016 hPa
Pregled: Light Rain
Oblaci: Partly Cloudy
Vidljivost: 10 km
2021/09/28 04:00 LRTR 280400Z 18005KT 9999 -RA NSC 14/14 Q1016
 
LRCV - Craiova, Romania
Ažurirano: 28/09/2021 06:00
Vedro
Vedro
 Pravac vetra SI
Vetar: SI 20 km/h
Temperatura: 16°C
Tačka rose: 12°C
Vlažnost: 77%
Pritisak: 1017 hPa
Pregled: Vedro
Vidljivost: greater than 10 km
2021/09/28 04:00 LRCV 280400Z 05011KT CAVOK 16/12 Q1017
LBSF - Sofia, Bulgaria
Ažurirano: 28/09/2021 06:00
Slaba kiša, Pretežno oblačno
Slaba kiša, Pretežno oblačno
 Pravac vetra I
Vetar: I 9 km/h
Temperatura: 14°C
Tačka rose: 12°C
Vlažnost: 88%
Pritisak: 1019 hPa
Pregled: Light Rain
Oblaci: Mostly Cloudy
Vidljivost: 10 km
Cloud details: Mostly Cloudy 2438 m
2021/09/28 04:00 LBSF 280400Z 10005KT 9999 -RA BKN080 14/12 Q1019 NOSIG
LWSK - Skoplje, Makedonija
Ažurirano: 28/09/2021 06:00
Few Clouds
Few Clouds
 Pravac vetra calm
Vetar: Tišina
Temperatura: 16°C
Tačka rose: 12°C
Vlažnost: 77%
Pritisak: 1017 hPa
Oblaci: Few Clouds
Vidljivost: 10 km
Cloud details: Few Clouds 3048 m
2021/09/28 04:00 LWSK 280400Z 00000KT 9999 FEW100 16/12 Q1017 NOSIG
 
LYPG - Podgorica, Crna Gora
Ažurirano: 28/09/2021 06:00
Few Clouds
Few Clouds
 Pravac vetra SSZ
Vetar: SSZ 4 km/h
Temperatura: 16°C
Tačka rose: 14°C
Vlažnost: 88%
Pritisak: 1015 hPa
Oblaci: Few Clouds
Vidljivost: 10 km
Cloud details: Few Clouds 1219 m
2021/09/28 04:00 LYPG 280400Z 34002KT 9999 FEW040 16/14 Q1015 NOSIG
LQSA - Sarajevo, Bosna i Hercegovina
Ažurirano: 28/09/2021 06:00
Padavine, Mist, Oblačno
Padavine, Mist, Oblačno
 Pravac vetra calm
Vetar: Tišina
Temperatura: 15°C
Tačka rose: 15°C
Vlažnost: 100%
Pritisak: 1020 hPa
Pregled: Padavine, Mist
Oblaci: Oblačno
Vidljivost: 4 km
Cloud details: Mostly Cloudy 183 m
Oblačno 610 m
2021/09/28 04:00 LQSA 280400Z 00000KT 4000 RA BR BKN006 OVC020 15/15 Q1020
LDOS - Osijek, Hrvatksa
Ažurirano: 28/09/2021 06:00
Mostly Cloudy
Mostly Cloudy
 Pravac vetra Z
Vetar: Z 20 km/h
Temperatura: 15°C
Tačka rose: 15°C
Vlažnost: 100%
Pritisak: 1018 hPa
Oblaci: Mostly Cloudy
Vidljivost: 10 km
Cloud details: Partly Cloudy 91 m
Mostly Cloudy 213 m
2021/09/28 04:00 LDOS 280400Z 28011KT 9999 SCT003 BKN007 15/15 Q1018